Time;durP1;ratioP1;P1;durP2;ratioP2;P2;SDS_P1;SDS_P2;PMS_P1;PMS_P2;Temp;Humidity;BMP_temperature;BMP_pressure;BME280_temperature;BME280_humidity;BME280_pressure;Samples;Min_cycle;Max_cycle;Signal;HPM_P1;HPM_P2
2022/01/21 00:01:46;;;;;;;23.77;3.05;;;2.10;99.90;;;;;;5047007;28;20029;-76
2022/01/21 00:04:12;;;;;;;21.02;2.53;;;2.10;99.90;;;;;;5053406;28;20483;-76
2022/01/21 00:06:39;;;;;;;18.75;2.00;;;2.10;99.90;;;;;;5052919;28;20056;-75
2022/01/21 00:09:05;;;;;;;16.38;2.00;;;2.00;99.90;;;;;;5053107;28;20514;-76
2022/01/21 00:11:31;;;;;;;13.35;2.15;;;1.90;99.90;;;;;;5053292;28;20112;-76
2022/01/21 00:13:58;;;;;;;21.98;2.70;;;1.80;99.90;;;;;;5053145;28;20328;-76
2022/01/21 00:16:25;;;;;;;17.85;2.00;;;1.70;99.90;;;;;;5048465;28;20036;-76
2022/01/21 00:18:57;;;;;;;21.77;2.05;;;1.60;99.90;;;;;;5033203;28;20156;-75
2022/01/21 00:32:22;;;;;;;21.88;2.47;;;1.40;99.90;;;;;;5033396;28;20036;-76
2022/01/21 00:34:48;;;;;;;13.43;2.17;;;1.20;99.90;;;;;;5032588;28;20041;-76
2022/01/21 00:37:13;;;;;;;18.17;1.88;;;1.20;99.90;;;;;;5033046;28;20380;-76
2022/01/21 00:39:39;;;;;;;17.80;2.35;;;1.10;99.90;;;;;;5032708;28;20029;-76
2022/01/21 00:44:32;;;;;;;22.25;2.45;;;1.00;99.90;;;;;;5032583;28;20112;-76
2022/01/21 00:46:57;;;;;;;19.05;2.10;;;1.00;99.90;;;;;;5068510;28;20107;-76
2022/01/21 00:49:23;;;;;;;13.18;2.30;;;1.00;99.90;;;;;;5072727;28;20035;-76
2022/01/21 00:51:49;;;;;;;20.75;2.35;;;0.90;99.90;;;;;;5072740;28;20017;-76
2022/01/21 00:54:15;;;;;;;16.48;2.35;;;0.90;99.90;;;;;;5072327;28;20412;-76
2022/01/21 00:56:40;;;;;;;22.23;2.15;;;0.90;99.90;;;;;;5072480;28;20036;-76
2022/01/21 00:59:06;;;;;;;17.75;2.47;;;0.90;99.90;;;;;;5072105;28;20549;-76
2022/01/21 01:01:32;;;;;;;22.27;2.10;;;0.90;99.90;;;;;;5058164;28;20026;-76
2022/01/21 01:03:58;;;;;;;22.33;2.78;;;0.80;99.90;;;;;;5052169;28;20032;-76
2022/01/21 01:06:24;;;;;;;23.63;3.30;;;0.90;99.90;;;;;;5052349;28;20051;-76
2022/01/21 01:08:50;;;;;;;17.63;2.85;;;0.90;99.90;;;;;;5052272;28;20036;-76
2022/01/21 01:11:22;;;;;;;35.90;3.58;;;1.00;99.90;;;;;;5052420;28;20059;-76
2022/01/21 01:22:25;;;;;;;20.60;2.35;;;0.70;99.90;;;;;;4971371;28;20061;-76
2022/01/21 01:27:41;;;;;;;22.63;3.15;;;0.60;99.90;;;;;;4971381;28;20073;-76
2022/01/21 01:30:11;;;;;;;24.95;3.30;;;0.60;99.90;;;;;;4970952;28;20054;-76
2022/01/21 01:32:38;;;;;;;12.50;2.42;;;0.50;99.90;;;;;;4971191;28;20062;-76
2022/01/21 01:35:04;;;;;;;16.27;2.45;;;0.50;99.90;;;;;;4971053;28;20038;-76
2022/01/21 01:37:46;;;;;;;14.93;2.53;;;0.40;99.90;;;;;;4971900;28;20198;-76
2022/01/21 01:50:37;;;;;;;15.48;2.58;;;0.40;99.90;;;;;;5043581;28;20517;-76
2022/01/21 01:53:05;;;;;;;14.00;2.50;;;0.50;99.90;;;;;;5075587;28;20059;-76
2022/01/21 01:55:32;;;;;;;26.60;3.47;;;0.50;99.90;;;;;;5075375;28;20107;-76
2022/01/21 01:57:57;;;;;;;14.13;3.00;;;0.60;99.90;;;;;;5074810;28;20090;-76
2022/01/21 02:00:24;;;;;;;23.25;2.97;;;0.70;99.90;;;;;;5075329;28;20028;-76
2022/01/21 02:02:49;;;;;;;18.60;2.55;;;0.80;99.90;;;;;;5075393;28;20024;-76
2022/01/21 02:05:15;;;;;;;23.63;3.35;;;0.80;99.90;;;;;;5075265;28;20131;-76
2022/01/21 02:07:40;;;;;;;29.40;3.20;;;0.90;99.90;;;;;;5075309;28;20031;-76
2022/01/21 02:10:06;;;;;;;23.15;2.65;;;0.90;99.90;;;;;;5075232;28;20029;-76
2022/01/21 02:12:32;;;;;;;24.75;2.97;;;1.00;99.90;;;;;;5075498;28;20028;-76
2022/01/21 02:15:00;;;;;;;24.17;2.60;;;0.90;99.90;;;;;;5074971;28;20036;-76
2022/01/21 02:22:44;;;;;;;18.60;2.13;;;0.80;99.90;;;;;;5035281;28;20024;-76
2022/01/21 02:25:19;;;;;;;16.27;1.90;;;0.80;99.90;;;;;;5033936;28;20032;-76
2022/01/21 02:27:49;;;;;;;15.88;3.45;;;0.70;99.90;;;;;;5035321;28;20109;-76
2022/01/21 02:30:20;;;;;;;15.63;2.10;;;0.60;99.90;;;;;;5035159;28;20487;-76
2022/01/21 02:32:59;;;;;;;16.92;2.13;;;0.60;99.90;;;;;;5035347;28;20483;-76
2022/01/21 02:35:25;;;;;;;17.55;2.38;;;0.60;99.90;;;;;;5035092;28;20075;-76
2022/01/21 02:37:52;;;;;;;18.08;3.08;;;0.60;99.90;;;;;;5035172;28;20021;-76
2022/01/21 02:40:18;;;;;;;17.58;2.13;;;0.50;99.90;;;;;;5034996;28;20488;-76
2022/01/21 02:42:44;;;;;;;8.85;1.90;;;0.50;99.90;;;;;;5035090;28;20029;-76
2022/01/21 02:45:14;;;;;;;15.30;2.08;;;0.50;99.90;;;;;;5040993;28;20012;-76
2022/01/21 02:47:40;;;;;;;19.55;2.00;;;0.50;99.90;;;;;;5074948;28;20021;-76
2022/01/21 02:50:06;;;;;;;21.77;3.42;;;0.40;99.90;;;;;;5074254;28;20063;-76
2022/01/21 02:52:40;;;;;;;14.52;2.05;;;0.40;99.90;;;;;;5074864;28;20032;-76
2022/01/21 02:55:08;;;;;;;14.57;1.95;;;0.40;99.90;;;;;;5073456;28;20035;-76
2022/01/21 02:57:33;;;;;;;17.58;2.25;;;0.40;99.90;;;;;;5075011;28;20205;-76
2022/01/21 02:59:59;;;;;;;15.45;2.97;;;0.30;99.90;;;;;;5074544;28;20497;-77
2022/01/21 03:02:24;;;;;;;17.08;2.28;;;0.30;99.90;;;;;;5074754;28;20031;-77
2022/01/21 03:05:04;;;;;;;10.27;1.55;;;0.20;99.90;;;;;;5074803;28;20107;-76
2022/01/21 03:07:30;;;;;;;14.27;1.63;;;0.10;99.90;;;;;;5074794;28;20024;-76
2022/01/21 03:09:55;;;;;;;15.23;2.38;;;0.10;99.90;;;;;;5074592;28;20524;-76
2022/01/21 03:12:24;;;;;;;18.25;2.40;;;0.00;99.90;;;;;;5074530;28;20052;-77
2022/01/21 03:14:50;;;;;;;12.05;2.67;;;0.00;99.90;;;;;;5074146;28;20035;-76
2022/01/21 03:17:16;;;;;;;15.68;2.90;;;0.00;99.90;;;;;;5063097;28;20071;-76
2022/01/21 03:19:41;;;;;;;22.73;2.17;;;0.00;99.90;;;;;;5054204;28;20025;-76
2022/01/21 03:22:07;;;;;;;23.13;2.72;;;0.00;99.90;;;;;;5052925;28;20455;-76
2022/01/21 03:24:32;;;;;;;15.45;2.05;;;-0.10;99.90;;;;;;5054098;28;20128;-76
2022/01/21 03:26:58;;;;;;;9.93;1.80;;;-0.10;99.90;;;;;;5054307;28;20025;-76
2022/01/21 03:29:24;;;;;;;14.57;2.17;;;-0.10;99.90;;;;;;5054089;28;20113;-76
2022/01/21 03:31:49;;;;;;;11.05;1.70;;;-0.10;99.90;;;;;;5052813;28;20029;-76
2022/01/21 03:34:15;;;;;;;14.13;1.92;;;-0.20;99.90;;;;;;5054353;28;20033;-76
2022/01/21 03:36:42;;;;;;;18.83;2.45;;;-0.20;99.90;;;;;;5052616;28;20032;-76
2022/01/21 03:39:08;;;;;;;17.70;2.45;;;-0.20;99.90;;;;;;5054159;28;20463;-76
2022/01/21 03:41:34;;;;;;;15.35;2.40;;;-0.20;99.90;;;;;;5054153;28;20028;-76
2022/01/21 03:43:59;;;;;;;11.75;1.95;;;-0.10;99.90;;;;;;5052354;28;20021;-76
2022/01/21 03:46:25;;;;;;;21.77;2.33;;;-0.20;99.90;;;;;;5033956;28;20067;-76
2022/01/21 03:48:51;;;;;;;16.80;2.58;;;-0.20;99.90;;;;;;5034246;28;20076;-76
2022/01/21 03:51:19;;;;;;;19.70;2.25;;;-0.20;99.90;;;;;;5034144;28;20449;-76
2022/01/21 03:53:46;;;;;;;32.78;2.90;;;-0.20;99.90;;;;;;5033892;28;20040;-76
2022/01/21 03:56:13;;;;;;;15.60;2.65;;;-0.10;99.90;;;;;;5033644;28;20387;-77
2022/01/21 03:58:38;;;;;;;14.45;2.10;;;-0.10;99.90;;;;;;5033631;28;20029;-76
2022/01/21 04:01:04;;;;;;;18.70;2.80;;;-0.10;99.90;;;;;;5031594;28;20025;-76
2022/01/21 04:03:30;;;;;;;18.15;2.60;;;-0.10;99.90;;;;;;5032328;28;20366;-76
2022/01/21 04:05:55;;;;;;;11.40;2.10;;;-0.10;99.90;;;;;;5033812;28;20071;-76
2022/01/21 04:08:21;;;;;;;12.02;2.03;;;-0.10;99.90;;;;;;5032134;28;20029;-76
2022/01/21 04:10:48;;;;;;;25.67;2.78;;;-0.20;99.90;;;;;;5033466;28;20029;-76
2022/01/21 04:13:16;;;;;;;16.80;2.25;;;-0.20;99.90;;;;;;5033751;28;20026;-76
2022/01/21 04:15:44;;;;;;;13.63;2.17;;;-0.20;99.90;;;;;;5048782;28;20033;-77
2022/01/21 04:18:10;;;;;;;10.75;1.75;;;-0.20;99.90;;;;;;5033164;28;20466;-76
2022/01/21 04:20:36;;;;;;;16.42;2.75;;;-0.20;99.90;;;;;;5033494;28;20022;-76
2022/01/21 04:23:03;;;;;;;14.85;3.03;;;-0.30;99.90;;;;;;5033294;28;20028;-76
2022/01/21 04:25:28;;;;;;;19.08;2.65;;;-0.30;99.90;;;;;;5033529;28;20031;-76
2022/01/21 04:27:54;;;;;;;22.63;2.55;;;-0.20;99.90;;;;;;5033175;28;20044;-76
2022/01/21 04:30:19;;;;;;;9.55;2.10;;;-0.30;99.90;;;;;;5033116;28;20057;-76
2022/01/21 04:32:45;;;;;;;26.50;3.08;;;-0.30;99.90;;;;;;5033088;28;20037;-76
2022/01/21 04:35:11;;;;;;;16.67;2.83;;;-0.30;99.90;;;;;;5033034;28;20472;-76
2022/01/21 04:37:42;;;;;;;21.13;3.05;;;-0.30;99.90;;;;;;5033086;28;20025;-76
2022/01/21 04:40:12;;;;;;;11.43;2.20;;;-0.30;99.90;;;;;;5033240;28;20017;-76
2022/01/21 04:48:07;;;;;;;21.77;2.05;;;-0.40;99.90;;;;;;5072572;28;20051;-76
2022/01/21 04:50:40;;;;;;;16.80;2.25;;;-0.40;99.90;;;;;;5072965;28;20024;-76
2022/01/21 04:53:06;;;;;;;16.48;2.22;;;-0.50;99.90;;;;;;5072816;28;20039;-76
2022/01/21 04:55:36;;;;;;;11.40;2.00;;;-0.50;99.90;;;;;;5072828;28;20033;-76
2022/01/21 04:58:02;;;;;;;16.10;3.00;;;-0.60;99.90;;;;;;5072605;28;20644;-76
2022/01/21 05:00:28;;;;;;;11.68;2.58;;;-0.60;99.90;;;;;;5072995;28;20025;-76
2022/01/21 05:02:54;;;;;;;16.48;2.50;;;-0.60;99.90;;;;;;5072859;28;20090;-76
2022/01/21 05:05:20;;;;;;;16.63;2.42;;;-0.60;99.90;;;;;;5072933;28;20028;-76
2022/01/21 05:07:45;;;;;;;12.77;1.85;;;-0.60;99.90;;;;;;5072827;28;20455;-76
2022/01/21 05:10:11;;;;;;;13.27;2.50;;;-0.70;99.90;;;;;;5072764;28;20104;-76
2022/01/21 05:12:37;;;;;;;10.25;2.10;;;-0.70;99.90;;;;;;5072290;28;20035;-76
2022/01/21 05:15:12;;;;;;;15.32;2.70;;;-0.70;99.90;;;;;;5072643;28;20032;-76
2022/01/21 05:17:45;;;;;;;13.35;2.20;;;-0.70;99.90;;;;;;5044245;28;20018;-76
2022/01/21 05:20:12;;;;;;;18.85;2.13;;;-0.70;99.90;;;;;;5032786;28;20155;-76
2022/01/21 05:22:38;;;;;;;10.85;2.17;;;-0.70;99.90;;;;;;5032715;28;20021;-76
2022/01/21 05:25:04;;;;;;;14.35;2.25;;;-0.70;99.90;;;;;;5032931;28;20112;-76
2022/01/21 05:27:30;;;;;;;15.43;2.05;;;-0.70;99.90;;;;;;5032560;28;20480;-76
2022/01/21 05:29:56;;;;;;;14.52;2.20;;;-0.70;99.90;;;;;;5032537;28;20045;-76
2022/01/21 05:32:22;;;;;;;12.52;3.35;;;-0.70;99.90;;;;;;5032688;28;20095;-76
2022/01/21 05:34:47;;;;;;;17.75;2.45;;;-0.80;99.90;;;;;;5032561;28;20025;-77
2022/01/21 05:37:13;;;;;;;17.33;2.35;;;-0.80;99.90;;;;;;5032575;28;20036;-77
2022/01/21 05:39:38;;;;;;;10.80;2.10;;;-0.80;99.90;;;;;;5032509;28;20096;-76
2022/01/21 05:42:06;;;;;;;21.92;2.28;;;-0.90;99.90;;;;;;5032618;28;20837;-76
2022/01/21 05:46:59;;;;;;;14.10;1.73;;;-0.90;99.90;;;;;;5032899;28;20037;-76
2022/01/21 05:49:28;;;;;;;15.18;2.13;;;-0.90;99.90;;;;;;5031331;28;20025;-77
2022/01/21 05:52:03;;;;;;;22.10;2.78;;;-0.90;99.90;;;;;;5032561;28;20037;-76
2022/01/21 05:54:28;;;;;;;12.88;2.75;;;-0.90;99.90;;;;;;5048040;28;20426;-76
2022/01/21 05:56:55;;;;;;;13.20;2.20;;;-0.90;99.90;;;;;;5032439;28;20094;-76
2022/01/21 05:59:22;;;;;;;14.77;2.88;;;-0.90;99.90;;;;;;5047781;28;20392;-76
2022/01/21 06:01:48;;;;;;;17.15;2.08;;;-0.90;99.90;;;;;;5031170;28;20111;-77
2022/01/21 06:04:14;;;;;;;15.07;2.55;;;-1.00;99.90;;;;;;5047737;28;20069;-76
2022/01/21 06:06:39;;;;;;;17.83;3.28;;;-1.00;99.90;;;;;;5032147;28;20033;-76
2022/01/21 06:09:06;;;;;;;17.60;2.70;;;-0.90;99.90;;;;;;5031149;28;20034;-76
2022/01/21 06:11:32;;;;;;;16.08;2.15;;;-0.90;99.90;;;;;;5031308;28;20547;-76
2022/01/21 06:13:57;;;;;;;14.32;2.60;;;-0.80;99.90;;;;;;5032062;28;20100;-76
2022/01/21 06:16:23;;;;;;;16.33;2.97;;;-0.70;99.90;;;;;;5032158;28;20043;-76
2022/01/21 06:18:49;;;;;;;21.75;2.88;;;-0.70;99.90;;;;;;5047191;28;20049;-77
2022/01/21 06:21:15;;;;;;;10.65;2.17;;;-0.60;99.90;;;;;;5047531;28;20072;-76
2022/01/21 06:23:41;;;;;;;16.42;2.67;;;-0.60;99.90;;;;;;5032214;28;20101;-76
2022/01/21 06:26:07;;;;;;;22.40;3.13;;;-0.60;99.90;;;;;;5035284;28;20124;-76
2022/01/21 06:28:33;;;;;;;23.55;2.83;;;-0.50;99.90;;;;;;5035963;28;20061;-76
2022/01/21 06:30:59;;;;;;;10.95;2.10;;;-0.50;99.90;;;;;;5035614;28;20050;-76
2022/01/21 06:33:24;;;;;;;17.98;2.33;;;-0.60;99.90;;;;;;5035936;28;20033;-76
2022/01/21 06:35:51;;;;;;;17.63;3.10;;;-0.60;99.90;;;;;;5035669;28;20030;-76
2022/01/21 06:38:18;;;;;;;15.35;2.80;;;-0.60;99.90;;;;;;5035796;28;20036;-76
2022/01/21 06:40:44;;;;;;;15.38;2.60;;;-0.50;99.90;;;;;;5051310;28;20473;-76
2022/01/21 06:43:09;;;;;;;9.00;2.42;;;-0.50;99.90;;;;;;5050909;28;20028;-76
2022/01/21 06:45:35;;;;;;;18.38;2.30;;;-0.50;99.90;;;;;;5050543;28;20036;-76
2022/01/21 06:48:03;;;;;;;17.45;2.33;;;-0.40;99.90;;;;;;5055596;28;20386;-76
2022/01/21 06:50:30;;;;;;;14.13;2.90;;;-0.40;99.90;;;;;;5055654;28;20420;-76
2022/01/21 06:52:56;;;;;;;11.50;2.20;;;-0.30;99.90;;;;;;5055343;28;20072;-76
2022/01/21 06:55:22;;;;;;;16.13;2.25;;;-0.30;99.90;;;;;;5055882;28;20069;-76
2022/01/21 06:57:47;;;;;;;12.13;2.13;;;-0.20;99.90;;;;;;5054025;28;20025;-76
2022/01/21 07:00:18;;;;;;;9.50;2.30;;;-0.20;99.90;;;;;;5053606;28;20021;-76
2022/01/21 07:02:48;;;;;;;14.40;2.60;;;-0.20;99.90;;;;;;5055493;28;20332;-76
2022/01/21 07:05:14;;;;;;;12.77;2.42;;;-0.10;99.90;;;;;;5055467;28;20025;-76
2022/01/21 07:07:40;;;;;;;16.08;3.38;;;-0.10;99.90;;;;;;5055114;28;20037;-76
2022/01/21 07:10:07;;;;;;;12.90;2.75;;;-0.10;99.90;;;;;;5054949;28;20029;-76
2022/01/21 07:12:34;;;;;;;12.30;3.65;;;-0.10;99.90;;;;;;5053940;28;20055;-76
2022/01/21 07:14:59;;;;;;;18.15;3.60;;;-0.20;99.90;;;;;;5054909;28;20033;-76
2022/01/21 07:17:25;;;;;;;17.67;4.28;;;-0.20;99.90;;;;;;5042566;28;20144;-76
2022/01/21 07:19:51;;;;;;;19.00;3.53;;;-0.20;99.90;;;;;;5034976;28;20034;-76
2022/01/21 07:22:16;;;;;;;20.52;4.13;;;-0.20;99.90;;;;;;5034890;28;20025;-76
2022/01/21 07:24:42;;;;;;;14.05;3.28;;;-0.10;99.90;;;;;;5035017;28;20067;-76
2022/01/21 07:27:08;;;;;;;26.45;3.53;;;0.00;99.90;;;;;;5034929;28;20033;-76
2022/01/21 07:29:33;;;;;;;16.73;3.42;;;0.00;99.90;;;;;;5034662;28;20104;-77
2022/01/21 07:31:59;;;;;;;19.25;3.20;;;0.00;99.90;;;;;;5033414;28;20361;-76
2022/01/21 07:34:26;;;;;;;16.90;3.47;;;0.00;99.90;;;;;;5034620;28;20029;-76
2022/01/21 07:36:53;;;;;;;14.07;4.13;;;0.00;99.90;;;;;;5049619;28;20400;-77
2022/01/21 07:39:19;;;;;;;15.27;2.55;;;0.00;99.90;;;;;;5034653;28;20033;-76
2022/01/21 07:41:44;;;;;;;11.57;2.75;;;0.00;99.90;;;;;;5034615;28;20021;-77
2022/01/21 07:44:12;;;;;;;26.30;4.47;;;0.00;99.90;;;;;;5037544;28;20059;-76
2022/01/21 07:46:38;;;;;;;19.65;3.40;;;0.10;99.90;;;;;;5054659;28;20053;-76
2022/01/21 07:49:04;;;;;;;14.85;3.30;;;0.10;99.90;;;;;;5054539;28;20029;-76
2022/01/21 07:51:30;;;;;;;14.15;3.33;;;0.10;99.90;;;;;;5053860;28;20143;-79
2022/01/21 07:53:55;;;;;;;10.57;2.75;;;0.00;99.90;;;;;;5053857;28;20052;-77
2022/01/21 07:56:21;;;;;;;13.57;2.60;;;0.00;99.90;;;;;;5045416;28;20534;-77
2022/01/21 07:58:47;;;;;;;15.20;2.90;;;0.00;99.90;;;;;;5051962;28;20025;-76
2022/01/21 08:01:12;;;;;;;12.73;2.47;;;0.00;99.90;;;;;;5045425;28;20049;-76
2022/01/21 08:03:38;;;;;;;15.27;3.00;;;0.00;99.90;;;;;;5046589;28;20029;-76
2022/01/21 08:06:05;;;;;;;17.70;5.05;;;0.00;99.90;;;;;;5042097;28;20451;-77
2022/01/21 08:08:31;;;;;;;16.73;4.40;;;0.00;99.90;;;;;;5047342;28;20030;-78
2022/01/21 08:10:57;;;;;;;26.60;5.80;;;0.10;99.90;;;;;;5044945;28;20391;-76
2022/01/21 08:13:23;;;;;;;18.40;6.57;;;0.10;99.90;;;;;;5053785;28;20029;-76
2022/01/21 08:15:48;;;;;;;24.88;5.72;;;0.20;99.90;;;;;;5052312;28;20075;-78
2022/01/21 08:18:15;;;;;;;24.23;5.30;;;0.30;99.90;;;;;;5053696;28;20364;-76
2022/01/21 08:20:42;;;;;;;19.02;5.18;;;0.40;99.90;;;;;;5052553;28;20053;-78
2022/01/21 08:23:09;;;;;;;14.50;4.47;;;0.40;99.90;;;;;;5053773;28;20448;-78
2022/01/21 08:25:35;;;;;;;13.85;4.07;;;0.50;99.90;;;;;;5052780;28;20036;-78
2022/01/21 08:28:00;;;;;;;14.25;4.30;;;0.40;99.90;;;;;;5053369;28;20033;-78
2022/01/21 08:30:26;;;;;;;19.08;4.88;;;0.50;99.90;;;;;;5053559;28;20487;-77
2022/01/21 08:32:51;;;;;;;27.83;6.32;;;0.50;99.90;;;;;;5053396;28;20017;-77
2022/01/21 08:35:17;;;;;;;22.80;6.75;;;0.60;99.90;;;;;;5053226;28;20040;-77
2022/01/21 08:37:43;;;;;;;21.33;6.93;;;0.50;99.90;;;;;;5053577;28;20029;-77
2022/01/21 08:40:10;;;;;;;20.33;6.55;;;0.60;99.90;;;;;;5053707;28;20017;-77
2022/01/21 08:42:35;;;;;;;25.40;7.45;;;0.80;99.90;;;;;;5053496;28;20028;-77
2022/01/21 08:45:01;;;;;;;21.27;6.00;;;0.80;99.90;;;;;;5053103;28;20038;-77
2022/01/21 08:47:27;;;;;;;22.35;5.28;;;0.80;99.90;;;;;;5054431;28;20025;-77
2022/01/21 08:49:53;;;;;;;22.90;5.35;;;0.90;99.90;;;;;;5072861;28;20175;-77
2022/01/21 08:52:21;;;;;;;12.05;3.50;;;1.00;99.90;;;;;;5056104;28;20094;-78
2022/01/21 08:54:48;;;;;;;16.70;4.00;;;1.10;99.90;;;;;;5052770;28;20429;-76
2022/01/21 08:57:15;;;;;;;20.05;4.90;;;1.40;99.90;;;;;;5051702;28;20112;-77
2022/01/21 08:59:40;;;;;;;20.63;4.25;;;1.40;99.90;;;;;;5052942;28;20458;-77
2022/01/21 09:02:06;;;;;;;19.25;4.68;;;1.50;99.90;;;;;;5052794;28;20056;-77
2022/01/21 09:04:32;;;;;;;14.73;4.40;;;1.70;99.90;;;;;;5052784;28;20028;-77
2022/01/21 09:06:58;;;;;;;15.43;4.30;;;1.80;99.90;;;;;;5052759;28;20075;-77
2022/01/21 09:09:25;;;;;;;20.02;3.78;;;1.80;99.90;;;;;;5052231;28;20032;-77
2022/01/21 09:11:53;;;;;;;20.05;3.60;;;1.90;99.90;;;;;;5052500;28;20109;-77
2022/01/21 09:14:19;;;;;;;16.95;4.35;;;2.00;99.90;;;;;;5037947;28;20033;-77
2022/01/21 09:16:45;;;;;;;19.58;3.50;;;2.10;99.90;;;;;;5046031;28;20200;-77
2022/01/21 09:19:10;;;;;;;20.90;4.18;;;2.10;99.90;;;;;;5050852;28;20056;-77
2022/01/21 09:21:41;;;;;;;12.43;4.15;;;2.20;99.90;;;;;;5052401;28;20191;-77
2022/01/21 09:24:07;;;;;;;17.88;4.45;;;2.40;99.90;;;;;;5052242;28;20389;-77
2022/01/21 09:26:33;;;;;;;17.77;3.45;;;2.40;99.90;;;;;;5052153;28;20068;-76
2022/01/21 09:29:00;;;;;;;21.05;4.45;;;2.50;99.90;;;;;;5051862;28;20056;-77
2022/01/21 09:31:25;;;;;;;14.35;3.70;;;2.60;99.90;;;;;;5051531;28;20037;-75
2022/01/21 09:33:51;;;;;;;26.05;4.78;;;2.60;99.90;;;;;;5051659;28;20021;-75
2022/01/21 09:36:18;;;;;;;18.77;3.85;;;2.70;99.90;;;;;;5050904;28;20072;-75
2022/01/21 09:38:45;;;;;;;18.73;3.83;;;2.80;99.90;;;;;;5051506;28;20053;-74
2022/01/21 09:41:11;;;;;;;16.48;4.10;;;2.90;99.90;;;;;;5052005;28;20452;-74
2022/01/21 09:43:38;;;;;;;23.02;4.50;;;3.00;99.90;;;;;;5051831;28;20036;-75
2022/01/21 09:46:07;;;;;;;18.08;4.22;;;3.10;99.90;;;;;;5032737;28;20360;-75
2022/01/21 09:48:47;;;;;;;21.52;3.65;;;3.20;99.90;;;;;;5051619;28;20381;-74
2022/01/21 09:51:13;;;;;;;22.55;3.60;;;3.40;99.90;;;;;;5070283;28;20037;-74
2022/01/21 09:53:39;;;;;;;14.55;3.70;;;3.70;99.90;;;;;;5071317;28;20039;-74
2022/01/21 09:56:06;;;;;;;21.40;5.03;;;3.80;99.90;;;;;;5071455;28;20375;-75
2022/01/21 09:58:32;;;;;;;13.23;3.20;;;3.90;99.90;;;;;;5071206;28;20028;-74
2022/01/21 10:01:07;;;;;;;27.65;4.00;;;3.90;99.90;;;;;;5074590;28;20052;-74
2022/01/21 10:03:34;;;;;;;14.65;3.08;;;4.00;99.90;;;;;;5075265;28;20052;-74
2022/01/21 10:06:02;;;;;;;27.13;4.72;;;4.10;99.90;;;;;;5075259;28;20028;-75
2022/01/21 10:08:28;;;;;;;19.50;3.38;;;4.20;99.90;;;;;;5075066;28;20043;-74
2022/01/21 10:10:54;;;;;;;13.43;3.50;;;4.20;99.90;;;;;;5072999;28;20119;-74
2022/01/21 10:13:21;;;;;;;17.83;3.17;;;4.20;99.90;;;;;;5038608;28;20793;-74
2022/01/21 10:15:48;;;;;;;23.05;3.30;;;4.20;99.90;;;;;;5050329;28;20376;-74
2022/01/21 10:18:16;;;;;;;14.02;2.85;;;4.30;99.90;;;;;;5034851;28;20098;-74
2022/01/21 10:21:05;;;;;;;31.35;6.00;;;4.30;99.90;;;;;;5035017;28;20030;-74
2022/01/21 10:23:34;;;;;;;19.05;5.15;;;4.50;99.90;;;;;;5034649;28;20049;-74
2022/01/21 10:26:02;;;;;;;22.73;4.55;;;4.50;99.90;;;;;;5033590;28;20400;-74
2022/01/21 10:28:29;;;;;;;21.20;4.47;;;4.70;99.90;;;;;;5033235;28;20547;-74
2022/01/21 10:31:17;;;;;;;20.48;4.70;;;5.00;99.90;;;;;;5034694;28;20095;-74
2022/01/21 10:34:01;;;;;;;15.18;4.72;;;5.20;99.90;;;;;;5034662;28;20041;-74
2022/01/21 10:36:31;;;;;;;18.95;2.80;;;5.30;99.90;;;;;;5034729;28;20120;-74
2022/01/21 10:39:08;;;;;;;23.27;4.32;;;5.30;99.90;;;;;;5033961;28;20022;-75
2022/01/21 10:41:38;;;;;;;19.13;2.95;;;5.40;99.90;;;;;;5044088;28;20024;-80
2022/01/21 10:44:09;;;;;;;15.43;3.13;;;5.40;99.90;;;;;;5052520;28;20379;-76
2022/01/21 10:46:35;;;;;;;19.08;3.17;;;5.50;99.90;;;;;;5054161;28;20017;-76
2022/01/21 10:49:13;;;;;;;19.50;2.63;;;5.70;99.90;;;;;;5054028;28;20035;-76
2022/01/21 10:51:41;;;;;;;15.43;2.13;;;6.10;99.90;;;;;;5052675;28;20017;-76
2022/01/21 10:54:19;;;;;;;19.77;2.15;;;6.40;99.90;;;;;;5041436;28;20037;-77
2022/01/21 10:57:03;;;;;;;18.02;2.17;;;6.60;99.90;;;;;;5045607;28;20091;-76
2022/01/21 11:00:03;;;;;;;18.60;2.15;;;6.50;99.90;;;;;;5044748;28;20032;-77
2022/01/21 11:02:52;;;;;;;17.73;2.33;;;6.30;99.90;;;;;;5053920;28;20020;-77
2022/01/21 11:05:23;;;;;;;18.73;2.92;;;6.40;99.90;;;;;;5061465;28;20021;-76
2022/01/21 11:07:51;;;;;;;9.55;2.90;;;6.50;99.90;;;;;;5059373;28;20024;-77
2022/01/21 11:10:32;;;;;;;18.27;2.20;;;6.50;99.90;;;;;;5048063;28;20029;-78
2022/01/21 11:13:13;;;;;;;16.80;2.03;;;6.50;99.90;;;;;;5049406;28;20040;-79
2022/01/21 11:15:43;;;;;;;18.10;2.17;;;6.60;99.90;;;;;;5040475;28;20036;-78
2022/01/21 11:18:13;;;;;;;17.20;2.55;;;6.50;99.90;;;;;;5053261;28;20036;-78
2022/01/21 11:20:41;;;;;;;14.48;3.22;;;6.50;99.90;;;;;;5051756;28;20021;-78
2022/01/21 11:23:08;;;;;;;17.63;2.53;;;6.60;99.90;;;;;;5046896;28;20425;-79
2022/01/21 11:25:57;;;;;;;10.63;1.92;;;6.70;99.90;;;;;;5039234;28;20038;-79
2022/01/21 11:28:26;;;;;;;18.23;2.17;;;6.60;99.90;;;;;;5037327;28;20032;-80
2022/01/21 11:30:52;;;;;;;14.20;2.22;;;6.70;99.90;;;;;;5047544;28;20057;-79
2022/01/21 11:33:19;;;;;;;13.90;2.42;;;6.90;99.90;;;;;;5051302;28;20024;-79
2022/01/21 11:35:47;;;;;;;14.75;2.55;;;7.10;99.90;;;;;;5044612;28;20092;-79
2022/01/21 11:38:14;;;;;;;22.63;2.30;;;7.00;99.90;;;;;;5047429;28;20100;-79
2022/01/21 11:40:40;;;;;;;20.20;2.60;;;7.00;99.90;;;;;;5048819;28;20082;-79
2022/01/21 11:43:09;;;;;;;22.40;2.67;;;7.10;99.90;;;;;;5046128;28;20030;-79
2022/01/21 11:50:42;;;;;;;17.42;2.40;;;7.00;99.90;;;;;;5044469;28;20108;-79
2022/01/21 11:53:07;;;;;;;15.75;2.38;;;7.00;99.90;;;;;;5044260;28;20025;-79
2022/01/21 11:55:41;;;;;;;21.00;2.72;;;7.00;99.90;;;;;;5053562;28;20111;-79
2022/01/21 11:58:16;;;;;;;17.80;2.22;;;7.10;99.90;;;;;;5047721;28;20104;-79
2022/01/21 12:00:44;;;;;;;16.50;2.83;;;7.10;99.90;;;;;;5046981;28;20479;-77
2022/01/21 12:03:10;;;;;;;22.58;3.60;;;7.00;99.90;;;;;;5037020;28;20025;-77
2022/01/21 12:05:35;;;;;;;21.33;2.33;;;7.10;99.90;;;;;;5052705;28;20493;-77
2022/01/21 12:08:05;;;;;;;17.42;2.47;;;7.00;99.90;;;;;;5048920;28;20037;-77
2022/01/21 12:10:32;;;;;;;21.13;2.72;;;7.10;99.90;;;;;;5051209;28;20507;-77
2022/01/21 12:13:16;;;;;;;20.92;3.22;;;7.10;99.90;;;;;;5048431;28;20159;-77
2022/01/21 12:15:57;;;;;;;17.40;2.47;;;7.10;99.90;;;;;;5040510;28;20112;-77
2022/01/21 12:18:38;;;;;;;13.52;2.03;;;7.00;99.90;;;;;;5050707;28;20082;-77
2022/01/21 12:21:25;;;;;;;16.60;2.60;;;7.10;99.90;;;;;;5045447;28;20372;-77
2022/01/21 12:23:52;;;;;;;21.38;2.55;;;7.20;99.90;;;;;;5043310;28;20037;-77
2022/01/21 12:26:23;;;;;;;12.38;2.00;;;7.20;99.90;;;;;;5047921;28;20463;-77
2022/01/21 12:28:52;;;;;;;20.00;5.30;;;7.30;99.90;;;;;;5042347;28;20140;-77
2022/01/21 12:31:20;;;;;;;29.58;6.53;;;7.40;99.90;;;;;;5037804;28;20106;-77
2022/01/21 12:36:29;;;;;;;30.73;8.38;;;7.50;99.90;;;;;;5049897;28;20033;-78
2022/01/21 12:41:23;;;;;;;36.58;10.85;;;7.40;99.90;;;;;;5050564;28;20013;-79
2022/01/21 12:43:49;;;;;;;20.65;4.82;;;7.40;99.90;;;;;;5048453;28;20033;-78
2022/01/21 12:46:34;;;;;;;19.85;3.55;;;7.40;99.90;;;;;;5040650;28;20087;-78
2022/01/21 12:49:21;;;;;;;18.38;3.45;;;7.30;99.90;;;;;;5052644;28;20033;-78
2022/01/21 12:52:12;;;;;;;19.95;3.25;;;7.30;99.90;;;;;;5043605;28;20025;-77
2022/01/21 12:57:28;;;;;;;18.00;2.25;;;;;;;;;;5043258;28;20047;-78
2022/01/21 12:59:55;;;;;;;22.90;2.70;;;;;;;;;;5052032;28;20477;-79
2022/01/21 13:02:22;;;;;;;12.43;2.05;;;;;;;;;;5049672;28;20033;-78
2022/01/21 13:04:55;;;;;;;13.48;2.28;;;;;;;;;;5047824;28;20029;-78
2022/01/21 13:07:24;;;;;;;15.32;2.25;;;;;;;;;;5044867;28;20021;-79
2022/01/21 13:10:03;;;;;;;15.70;2.85;;;;;;;;;;5051716;28;20098;-78
2022/01/21 13:15:39;;;;;;;19.92;2.17;;;;;;;;;;5037536;28;20476;-78
2022/01/21 13:18:06;;;;;;;18.80;2.35;;;;;;;;;;5024207;28;20112;-78
2022/01/21 13:20:33;;;;;;;12.57;1.90;;;;;;;;;;5024672;28;20118;-78
2022/01/21 13:23:00;;;;;;;14.98;2.55;;;;;;;;;;5009215;28;20026;-79
2022/01/21 13:25:26;;;;;;;12.82;2.05;;;;;;;;;;5020319;28;20057;-78
2022/01/21 13:27:59;;;;;;;21.95;2.40;;;;;;;;;;5011272;28;20041;-78
2022/01/21 13:30:32;;;;;;;13.32;1.73;;;;;;;;;;5032078;28;20400;-79
2022/01/21 13:32:59;;;;;;;13.73;1.80;;;;;;;;;;5016267;28;20045;-79
2022/01/21 13:35:26;;;;;;;21.20;3.78;;;;;;;;;;5032769;28;20037;-78
2022/01/21 13:38:08;;;;;;;14.18;2.28;;;;;;;;;;5016522;28;20109;-79
2022/01/21 13:40:36;;;;;;;;;;;;;;;;;;5032806;28;20121;-78
2022/01/21 13:43:15;;;;;;;19.02;2.78;;;7.40;99.90;;;;;;5037406;28;19967;-79
2022/01/21 13:46:05;;;;;;;18.63;2.22;;;7.50;99.90;;;;;;5019087;28;20044;-79
2022/01/21 13:48:35;;;;;;;20.80;2.70;;;;;;;;;;5032428;28;20498;-79
2022/01/21 13:51:02;;;;;;;20.23;2.10;;;;;;;;;;5030276;28;20040;-78
2022/01/21 13:53:28;;;;;;;16.17;3.03;;;7.50;99.90;;;;;;5047865;28;20037;-78
2022/01/21 13:55:59;;;;;;;14.05;2.10;;;7.50;99.90;;;;;;5053058;28;20637;-78
2022/01/21 13:58:28;;;;;;;19.48;2.95;;;7.40;99.90;;;;;;5052858;28;20464;-78
2022/01/21 14:00:56;;;;;;;11.00;2.25;;;7.30;99.90;;;;;;5046073;28;20104;-78